Wetterdaten: Woche 27.06.16 - 03.07.16 (KW26)
Datum Zeit Temp. I. Temp. A. Feuchte I. Feuchte A. Luftdruck Regen Wind Richtung Sonnenschein UV Solar Taupunkt Windchill Windben
27.06.2016 00:00 25,2 C 14,9 C 53 % 86 % 1018,0 hPa 0,0 l/m 0,0 km/h (0 Bft) N 0,00 h 0,0 UV-I 0 W/m 12,5 C 14,9 C 0,0 km/h (0 Bft)
27.06.2016 01:00 25,2 C 14,8 C 53 % 83 % 1018,0 hPa 0,0 l/m 0,0 km/h (0 Bft) N 0,00 h 0,0 UV-I 0 W/m 12,0 C 14,8 C 0,0 km/h (0 Bft)
27.06.2016 02:00 25,1 C 14,5 C 53 % 85 % 1017,6 hPa 0,0 l/m 0,0 km/h (0 Bft) N 0,00 h 0,0 UV-I 0 W/m 12,0 C 14,5 C 0,1 km/h (0 Bft)
27.06.2016 03:00 25,1 C 14,3 C 54 % 87 % 1017,6 hPa 0,0 l/m 0,1 km/h (0 Bft) S 0,00 h 0,0 UV-I 0 W/m 12,2 C 14,3 C 0,4 km/h (0 Bft)
27.06.2016 04:00 25,2 C 14,2 C 54 % 87 % 1017,8 hPa 0,0 l/m 0,0 km/h (0 Bft) SW 0,00 h 0,0 UV-I 0 W/m 12,1 C 14,2 C 0,3 km/h (0 Bft)
27.06.2016 05:00 25,1 C 14,0 C 55 % 87 % 1018,1 hPa 0,0 l/m 0,0 km/h (0 Bft) N 0,00 h 0,0 UV-I 9 W/m 11,9 C 14,0 C 0,1 km/h (0 Bft)
27.06.2016 06:00 25,1 C 14,1 C 55 % 89 % 1018,5 hPa 0,0 l/m 0,2 km/h (0 Bft) S 0,00 h 0,5 UV-I 50 W/m 12,3 C 14,1 C 1,5 km/h (1 Bft)
27.06.2016 07:00 25,1 C 14,9 C 55 % 85 % 1018,7 hPa 0,0 l/m 2,9 km/h (1 Bft) SW 0,47 h 0,8 UV-I 175 W/m 12,4 C 14,8 C 6,5 km/h (2 Bft)
27.06.2016 08:00 25,1 C 15,8 C 55 % 77 % 1018,8 hPa 0,0 l/m 2,7 km/h (1 Bft) W-SW 0,92 h 1,6 UV-I 306 W/m 11,8 C 15,8 C 6,0 km/h (2 Bft)
27.06.2016 09:00 25,3 C 17,3 C 55 % 66 % 1019,1 hPa 0,0 l/m 6,3 km/h (2 Bft) W-SW 1,00 h 3,2 UV-I 638 W/m 10,8 C 16,7 C 12,3 km/h (3 Bft)
27.06.2016 10:00 25,0 C 18,4 C 52 % 60 % 1019,1 hPa 0,0 l/m 7,3 km/h (2 Bft) W-SW 1,00 h 4,6 UV-I 752 W/m 10,4 C 17,7 C 13,9 km/h (3 Bft)
27.06.2016 11:00 25,1 C 19,6 C 52 % 55 % 1018,8 hPa 0,0 l/m 6,1 km/h (2 Bft) W-SW 1,00 h 6,1 UV-I 886 W/m 10,2 C 19,2 C 13,2 km/h (3 Bft)
27.06.2016 12:00 25,2 C 20,1 C 51 % 49 % 1018,7 hPa 0,0 l/m 7,9 km/h (2 Bft) W-SW 0,90 h 6,3 UV-I 852 W/m 9,1 C 19,4 C 15,4 km/h (3 Bft)
27.06.2016 13:00 25,2 C 20,7 C 51 % 46 % 1018,4 hPa 0,0 l/m 7,9 km/h (2 Bft) W 1,00 h 6,4 UV-I 888 W/m 8,7 C 19,9 C 16,0 km/h (3 Bft)
27.06.2016 14:00 25,2 C 20,9 C 50 % 44 % 1018,1 hPa 0,0 l/m 8,0 km/h (2 Bft) W-SW 1,00 h 6,3 UV-I 898 W/m 8,0 C 20,1 C 16,8 km/h (3 Bft)
27.06.2016 15:00 25,2 C 21,1 C 47 % 42 % 1017,8 hPa 0,0 l/m 8,0 km/h (2 Bft) W-SW 1,00 h 5,5 UV-I 818 W/m 7,7 C 20,4 C 15,6 km/h (3 Bft)
27.06.2016 16:00 25,3 C 21,0 C 45 % 44 % 1017,7 hPa 0,0 l/m 7,3 km/h (2 Bft) W 0,98 h 4,7 UV-I 713 W/m 8,2 C 20,4 C 14,2 km/h (3 Bft)
27.06.2016 17:00 25,1 C 19,7 C 44 % 49 % 1017,8 hPa 0,0 l/m 6,2 km/h (2 Bft) W 0,95 h 1,6 UV-I 249 W/m 8,7 C 19,2 C 13,9 km/h (3 Bft)
27.06.2016 18:00 24,9 C 19,0 C 44 % 52 % 1018,0 hPa 0,0 l/m 6,7 km/h (2 Bft) W 0,37 h 0,8 UV-I 150 W/m 8,8 C 18,4 C 14,1 km/h (3 Bft)
27.06.2016 19:00 25,2 C 18,2 C 46 % 54 % 1018,1 hPa 0,0 l/m 6,1 km/h (2 Bft) W 0,00 h 0,6 UV-I 86 W/m 8,8 C 17,8 C 13,2 km/h (3 Bft)
27.06.2016 20:00 25,4 C 17,3 C 47 % 59 % 1018,2 hPa 0,0 l/m 3,4 km/h (1 Bft) W 0,00 h 0,0 UV-I 23 W/m 9,2 C 17,1 C 8,3 km/h (2 Bft)
27.06.2016 21:00 25,4 C 16,5 C 48 % 64 % 1018,5 hPa 0,0 l/m 0,6 km/h (0 Bft) W 0,00 h 0,0 UV-I 5 W/m 9,8 C 16,5 C 2,3 km/h (1 Bft)
27.06.2016 22:00 25,4 C 16,3 C 48 % 68 % 1018,7 hPa 0,0 l/m 1,0 km/h (0 Bft) W 0,00 h 0,0 UV-I 0 W/m 10,4 C 16,3 C 3,1 km/h (1 Bft)
27.06.2016 23:00 25,3 C 15,9 C 49 % 71 % 1018,8 hPa 0,0 l/m 0,1 km/h (0 Bft) W-SW 0,00 h 0,0 UV-I 0 W/m 10,7 C 15,9 C 0,4 km/h (0 Bft)
28.06.2016 00:00 25,2 C 15,9 C 49 % 74 % 1018,8 hPa 0,0 l/m 0,2 km/h (0 Bft) W-SW 0,00 h 0,0 UV-I 0 W/m 11,2 C 15,9 C 1,1 km/h (1 Bft)
28.06.2016 01:00 25,1 C 15,7 C 50 % 75 % 1018,7 hPa 0,0 l/m 0,0 km/h (0 Bft) N 0,00 h 0,0 UV-I 0 W/m 11,2 C 15,7 C 0,1 km/h (0 Bft)
28.06.2016 02:00 25,1 C 15,1 C 50 % 78 % 1018,5 hPa 0,0 l/m 0,0 km/h (0 Bft) N 0,00 h 0,0 UV-I 0 W/m 11,3 C 15,1 C 0,0 km/h (0 Bft)
28.06.2016 03:00 25,1 C 14,7 C 51 % 81 % 1018,4 hPa 0,0 l/m 0,0 km/h (0 Bft) N 0,00 h 0,0 UV-I 0 W/m 11,5 C 14,7 C 0,0 km/h (0 Bft)
28.06.2016 04:00 25,1 C 14,2 C 51 % 84 % 1018,2 hPa 0,0 l/m 0,0 km/h (0 Bft) N 0,00 h 0,0 UV-I 0 W/m 11,5 C 14,2 C 0,0 km/h (0 Bft)
28.06.2016 05:00 25,0 C 14,5 C 51 % 84 % 1018,1 hPa 0,0 l/m 0,0 km/h (0 Bft) N 0,00 h 0,0 UV-I 14 W/m 11,8 C 14,5 C 0,0 km/h (0 Bft)
28.06.2016 06:00 24,8 C 14,3 C 51 % 86 % 1018,1 hPa 0,0 l/m 0,0 km/h (0 Bft) N 0,00 h 0,0 UV-I 33 W/m 12,0 C 14,3 C 0,0 km/h (0 Bft)
28.06.2016 07:00 25,0 C 15,3 C 51 % 85 % 1017,8 hPa 0,0 l/m 0,8 km/h (0 Bft) W-SW 0,38 h 0,8 UV-I 110 W/m 12,7 C 15,3 C 1,4 km/h (1 Bft)
28.06.2016 08:00 25,1 C 16,4 C 52 % 81 % 1018,0 hPa 0,0 l/m 3,4 km/h (1 Bft) W-SW 0,58 h 1,0 UV-I 148 W/m 13,2 C 16,3 C 7,0 km/h (2 Bft)
28.06.2016 09:00 25,1 C 16,5 C 52 % 82 % 1017,8 hPa 0,0 l/m 3,2 km/h (1 Bft) S 0,72 h 1,3 UV-I 173 W/m 13,5 C 16,5 C 6,3 km/h (2 Bft)
28.06.2016 10:00 25,2 C 18,0 C 52 % 78 % 1017,7 hPa 0,0 l/m 4,0 km/h (1 Bft) S 1,00 h 3,3 UV-I 463 W/m 14,2 C 17,8 C 8,1 km/h (2 Bft)
28.06.2016 11:00 25,0 C 19,9 C 52 % 69 % 1017,6 hPa 0,0 l/m 4,2 km/h (1 Bft) W-SW 1,00 h 5,0 UV-I 597 W/m 13,9 C 19,7 C 9,0 km/h (2 Bft)
28.06.2016 12:00 25,1 C 21,5 C 52 % 62 % 1017,2 hPa 0,0 l/m 6,0 km/h (2 Bft) W-SW 1,00 h 6,3 UV-I 625 W/m 13,9 C 21,0 C 11,8 km/h (2 Bft)
28.06.2016 13:00 25,2 C 22,7 C 52 % 55 % 1016,8 hPa 0,0 l/m 6,0 km/h (2 Bft) W-SW 1,00 h 7,7 UV-I 904 W/m 13,3 C 22,3 C 11,6 km/h (2 Bft)
28.06.2016 14:00 25,3 C 23,3 C 52 % 52 % 1016,1 hPa 0,0 l/m 5,5 km/h (1 Bft) W-SW 1,00 h 6,8 UV-I 827 W/m 12,9 C 22,9 C 11,2 km/h (2 Bft)
28.06.2016 15:00 25,3 C 23,0 C 52 % 54 % 1015,5 hPa 0,0 l/m 2,8 km/h (1 Bft) W 0,98 h 4,0 UV-I 485 W/m 13,3 C 23,0 C 6,8 km/h (2 Bft)
28.06.2016 16:00 25,6 C 22,3 C 51 % 55 % 1015,1 hPa 0,0 l/m 6,7 km/h (2 Bft) W 0,37 h 1,6 UV-I 233 W/m 12,7 C 21,9 C 11,4 km/h (2 Bft)
28.06.2016 17:00 25,4 C 21,1 C 51 % 63 % 1015,2 hPa 0,0 l/m 2,1 km/h (1 Bft) W 0,80 h 1,4 UV-I 206 W/m 13,9 C 21,1 C 5,1 km/h (1 Bft)
28.06.2016 18:00 25,3 C 21,1 C 51 % 64 % 1015,2 hPa 0,0 l/m 1,1 km/h (0 Bft) W-NW 0,87 h 1,0 UV-I 165 W/m 14,0 C 21,1 C 2,6 km/h (1 Bft)
28.06.2016 19:00 25,4 C 20,6 C 51 % 65 % 1014,8 hPa 0,0 l/m 0,7 km/h (0 Bft) N 0,00 h 0,6 UV-I 87 W/m 13,9 C 20,6 C 1,7 km/h (1 Bft)
28.06.2016 20:00 25,3 C 19,5 C 52 % 70 % 1014,8 hPa 0,0 l/m 0,1 km/h (0 Bft) W-NW 0,00 h 0,0 UV-I 18 W/m 14,0 C 19,5 C 0,2 km/h (0 Bft)
28.06.2016 21:00 25,4 C 18,5 C 52 % 75 % 1014,7 hPa 0,0 l/m 0,0 km/h (0 Bft) N 0,00 h 0,0 UV-I 6 W/m 14,0 C 18,5 C 0,0 km/h (0 Bft)
28.06.2016 22:00 25,4 C 17,4 C 52 % 82 % 1014,4 hPa 0,0 l/m 0,0 km/h (0 Bft) N 0,00 h 0,0 UV-I 0 W/m 14,3 C 17,4 C 0,0 km/h (0 Bft)
28.06.2016 23:00 25,2 C 16,9 C 53 % 84 % 1014,2 hPa 0,0 l/m 0,0 km/h (0 Bft) N 0,00 h 0,0 UV-I 0 W/m 14,1 C 16,9 C 0,0 km/h (0 Bft)
29.06.2016 00:00 25,2 C 16,4 C 53 % 85 % 1013,8 hPa 0,0 l/m 0,0 km/h (0 Bft) N 0,00 h 0,0 UV-I 0 W/m 13,9 C 16,4 C 0,0 km/h (0 Bft)
29.06.2016 01:00 25,1 C 16,5 C 53 % 86 % 1013,3 hPa 0,0 l/m 0,6 km/h (0 Bft) NW 0,00 h 0,0 UV-I 0 W/m 14,1 C 16,5 C 1,4 km/h (1 Bft)
29.06.2016 02:00 25,1 C 16,3 C 54 % 88 % 1012,6 hPa 0,0 l/m 0,0 km/h (0 Bft) N 0,00 h 0,0 UV-I 0 W/m 14,3 C 16,3 C 0,0 km/h (0 Bft)
29.06.2016 03:00 25,1 C 16,5 C 54 % 85 % 1012,1 hPa 0,0 l/m 0,0 km/h (0 Bft) N 0,00 h 0,0 UV-I 0 W/m 14,0 C 16,5 C 0,1 km/h (0 Bft)
29.06.2016 04:00 25,1 C 16,3 C 54 % 89 % 1012,2 hPa 0,0 l/m 1,5 km/h (1 Bft) W-NW 0,00 h 0,0 UV-I 0 W/m 14,4 C 16,2 C 2,9 km/h (1 Bft)
29.06.2016 05:00 25,1 C 15,6 C 55 % 92 % 1012,7 hPa 0,0 l/m 0,1 km/h (0 Bft) NW 0,00 h 0,0 UV-I 12 W/m 14,2 C 15,6 C 0,2 km/h (0 Bft)
29.06.2016 06:00 24,9 C 15,7 C 55 % 92 % 1012,9 hPa 0,0 l/m 0,2 km/h (0 Bft) S-SO 0,00 h 0,0 UV-I 45 W/m 14,4 C 15,7 C 0,5 km/h (0 Bft)
29.06.2016 07:00 24,9 C 16,1 C 55 % 93 % 1013,1 hPa 0,0 l/m 1,2 km/h (1 Bft) S 0,07 h 0,7 UV-I 92 W/m 14,9 C 16,1 C 2,6 km/h (1 Bft)
29.06.2016 08:00 25,0 C 17,3 C 55 % 87 % 1013,3 hPa 0,0 l/m 4,1 km/h (1 Bft) S 0,53 h 1,3 UV-I 215 W/m 15,2 C 17,2 C 8,7 km/h (2 Bft)
29.06.2016 09:00 25,3 C 18,5 C 55 % 80 % 1013,3 hPa 0,0 l/m 9,3 km/h (2 Bft) W-SW 0,78 h 3,1 UV-I 476 W/m 14,9 C 17,2 C 17,4 km/h (3 Bft)
29.06.2016 10:00 25,1 C 20,5 C 55 % 69 % 1013,3 hPa 0,0 l/m 9,7 km/h (2 Bft) W-SW 0,93 h 4,6 UV-I 677 W/m 14,6 C 19,2 C 18,4 km/h (3 Bft)
29.06.2016 11:00 25,2 C 21,6 C 55 % 64 % 1013,4 hPa 0,0 l/m 7,5 km/h (2 Bft) W-SW 1,00 h 5,7 UV-I 721 W/m 14,5 C 21,1 C 15,1 km/h (3 Bft)
29.06.2016 12:00 25,3 C 21,4 C 55 % 66 % 1013,4 hPa 0,0 l/m 6,1 km/h (2 Bft) W 0,92 h 3,2 UV-I 305 W/m 14,7 C 20,9 C 12,0 km/h (2 Bft)
29.06.2016 13:00 25,3 C 23,0 C 55 % 58 % 1013,2 hPa 0,0 l/m 8,9 km/h (2 Bft) W-SW 0,97 h 7,0 UV-I 770 W/m 14,3 C 22,2 C 17,8 km/h (3 Bft)
29.06.2016 14:00 25,3 C 23,8 C 55 % 53 % 1012,9 hPa 0,0 l/m 8,8 km/h (2 Bft) W-SW 0,97 h 6,0 UV-I 773 W/m 13,4 C 23,0 C 18,2 km/h (3 Bft)
29.06.2016 15:00 25,4 C 24,1 C 54 % 50 % 1012,8 hPa 0,0 l/m 9,4 km/h (2 Bft) W-SW 0,98 h 4,9 UV-I 667 W/m 12,9 C 23,3 C 18,1 km/h (3 Bft)
29.06.2016 16:00 25,7 C 24,4 C 52 % 49 % 1012,6 hPa 0,0 l/m 7,6 km/h (2 Bft) W 0,83 h 3,6 UV-I 479 W/m 12,9 C 23,9 C 15,3 km/h (3 Bft)
29.06.2016 17:00 25,7 C 23,7 C 52 % 52 % 1012,3 hPa 0,0 l/m 6,3 km/h (2 Bft) W-SW 0,67 h 2,0 UV-I 299 W/m 13,1 C 23,5 C 12,9 km/h (3 Bft)
29.06.2016 18:00 25,6 C 23,0 C 51 % 54 % 1012,0 hPa 0,0 l/m 5,2 km/h (1 Bft) W 0,00 h 1,0 UV-I 56 W/m 13,2 C 22,9 C 9,8 km/h (2 Bft)
29.06.2016 19:00 25,7 C 22,4 C 51 % 55 % 1012,1 hPa 0,0 l/m 3,9 km/h (1 Bft) W-SW 0,00 h 0,7 UV-I 34 W/m 13,0 C 22,4 C 7,9 km/h (2 Bft)
29.06.2016 20:00 25,9 C 21,3 C 52 % 59 % 1012,4 hPa 0,0 l/m 0,7 km/h (0 Bft) W 0,00 h 0,0 UV-I 19 W/m 13,0 C 21,3 C 2,2 km/h (1 Bft)
29.06.2016 21:00 26,0 C 19,5 C 53 % 68 % 1012,5 hPa 0,0 l/m 0,0 km/h (0 Bft) N 0,00 h 0,0 UV-I 6 W/m 13,4 C 19,5 C 0,0 km/h (0 Bft)
29.06.2016 22:00 25,8 C 17,1 C 53 % 80 % 1012,9 hPa 0,0 l/m 0,0 km/h (0 Bft) N 0,00 h 0,0 UV-I 0 W/m 13,6 C 17,1 C 0,0 km/h (0 Bft)
29.06.2016 23:00 25,6 C 15,7 C 53 % 85 % 1012,9 hPa 0,0 l/m 0,0 km/h (0 Bft) N 0,00 h 0,0 UV-I 0 W/m 13,2 C 15,7 C 0,0 km/h (0 Bft)
30.06.2016 00:00 25,4 C 15,0 C 54 % 88 % 1012,9 hPa 0,0 l/m 0,0 km/h (0 Bft) N 0,00 h 0,0 UV-I 0 W/m 13,0 C 15,0 C 0,0 km/h (0 Bft)
30.06.2016 01:00 25,3 C 14,6 C 54 % 88 % 1012,8 hPa 0,0 l/m 0,0 km/h (0 Bft) N 0,00 h 0,0 UV-I 0 W/m 12,7 C 14,6 C 0,0 km/h (0 Bft)
30.06.2016 02:00 25,3 C 14,4 C 54 % 89 % 1012,6 hPa 0,0 l/m 0,0 km/h (0 Bft) N 0,00 h 0,0 UV-I 0 W/m 12,6 C 14,4 C 0,0 km/h (0 Bft)
30.06.2016 03:00 25,3 C 14,2 C 54 % 90 % 1012,9 hPa 0,0 l/m 0,0 km/h (0 Bft) N 0,00 h 0,0 UV-I 0 W/m 12,6 C 14,2 C 0,0 km/h (0 Bft)
30.06.2016 04:00 25,2 C 14,4 C 55 % 91 % 1012,8 hPa 0,0 l/m 0,0 km/h (0 Bft) N 0,00 h 0,0 UV-I 0 W/m 12,9 C 14,4 C 0,0 km/h (0 Bft)
30.06.2016 05:00 25,2 C 14,8 C 55 % 91 % 1012,5 hPa 0,0 l/m 0,0 km/h (0 Bft) N 0,00 h 0,0 UV-I 16 W/m 13,3 C 14,8 C 0,2 km/h (0 Bft)
30.06.2016 06:00 25,1 C 15,3 C 55 % 91 % 1012,7 hPa 0,0 l/m 0,0 km/h (0 Bft) N 0,00 h 0,0 UV-I 36 W/m 13,9 C 15,3 C 0,0 km/h (0 Bft)
30.06.2016 07:00 25,1 C 16,0 C 55 % 89 % 1013,0 hPa 0,0 l/m 0,0 km/h (0 Bft) N 0,00 h 0,6 UV-I 85 W/m 14,1 C 16,0 C 0,0 km/h (0 Bft)
30.06.2016 08:00 25,1 C 17,4 C 55 % 83 % 1013,4 hPa 0,0 l/m 0,0 km/h (0 Bft) N 0,42 h 1,0 UV-I 158 W/m 14,5 C 17,4 C 0,0 km/h (0 Bft)
30.06.2016 09:00 25,2 C 18,8 C 55 % 81 % 1014,0 hPa 0,0 l/m 2,8 km/h (1 Bft) S 0,97 h 1,7 UV-I 246 W/m 15,3 C 18,7 C 5,7 km/h (1 Bft)
30.06.2016 10:00 25,2 C 18,4 C 55 % 77 % 1014,3 hPa 0,0 l/m 4,9 km/h (1 Bft) W-SW 0,18 h 0,9 UV-I 108 W/m 14,4 C 18,1 C 9,4 km/h (2 Bft)
30.06.2016 11:00 25,3 C 17,8 C 56 % 79 % 1014,6 hPa 0,0 l/m 2,9 km/h (1 Bft) S 0,98 h 1,9 UV-I 213 W/m 14,2 C 17,8 C 6,2 km/h (2 Bft)
30.06.2016 12:00 25,3 C 18,1 C 56 % 79 % 1014,8 hPa 0,0 l/m 2,9 km/h (1 Bft) S 1,00 h 2,4 UV-I 251 W/m 14,4 C 18,0 C 6,0 km/h (2 Bft)
30.06.2016 13:00 25,3 C 19,7 C 56 % 75 % 1014,6 hPa 0,0 l/m 2,2 km/h (1 Bft) S 1,00 h 4,3 UV-I 383 W/m 15,1 C 19,7 C 5,4 km/h (1 Bft)
30.06.2016 14:00 25,3 C 20,3 C 56 % 74 % 1014,5 hPa 0,0 l/m 2,3 km/h (1 Bft) S 0,85 h 2,6 UV-I 278 W/m 15,6 C 20,2 C 5,0 km/h (1 Bft)
30.06.2016 15:00 25,4 C 21,5 C 56 % 72 % 1014,1 hPa 0,0 l/m 2,2 km/h (1 Bft) S 1,00 h 3,6 UV-I 428 W/m 16,3 C 21,5 C 6,2 km/h (2 Bft)
30.06.2016 16:00 25,7 C 21,8 C 56 % 70 % 1013,7 hPa 0,0 l/m 3,0 km/h (1 Bft) S-SO 0,92 h 2,5 UV-I 350 W/m 16,0 C 21,8 C 7,0 km/h (2 Bft)
30.06.2016 17:00 25,8 C 21,6 C 56 % 73 % 1013,5 hPa 0,0 l/m 2,6 km/h (1 Bft) S-SO 0,45 h 1,3 UV-I 173 W/m 16,6 C 21,6 C 5,9 km/h (2 Bft)
30.06.2016 18:00 25,8 C 22,5 C 56 % 63 % 1013,6 hPa 0,0 l/m 4,9 km/h (1 Bft) W 0,00 h 1,0 UV-I 78 W/m 15,1 C 22,3 C 10,2 km/h (2 Bft)
30.06.2016 19:00 25,8 C 22,2 C 56 % 62 % 1013,9 hPa 0,0 l/m 4,1 km/h (1 Bft) W-SW 0,00 h 0,5 UV-I 55 W/m 14,6 C 22,1 C 8,9 km/h (2 Bft)
30.06.2016 20:00 25,9 C 21,4 C 56 % 65 % 1014,0 hPa 0,0 l/m 1,1 km/h (1 Bft) W-SW 0,00 h 0,0 UV-I 21 W/m 14,5 C 21,4 C 3,0 km/h (1 Bft)
30.06.2016 21:00 25,9 C 19,8 C 56 % 73 % 1014,7 hPa 0,0 l/m 0,0 km/h (0 Bft) N 0,00 h 0,0 UV-I 7 W/m 14,9 C 19,8 C 0,0 km/h (0 Bft)
30.06.2016 22:00 25,7 C 18,7 C 56 % 78 % 1015,2 hPa 0,0 l/m 0,0 km/h (0 Bft) N 0,00 h 0,0 UV-I 0 W/m 14,9 C 18,7 C 0,0 km/h (0 Bft)
30.06.2016 23:00 25,5 C 18,6 C 56 % 82 % 1015,3 hPa 0,0 l/m 0,0 km/h (0 Bft) N 0,00 h 0,0 UV-I 0 W/m 15,5 C 18,6 C 0,0 km/h (0 Bft)
01.07.2016 00:00 25,4 C 18,3 C 57 % 87 % 1015,7 hPa 0,0 l/m 1,5 km/h (1 Bft) S 0,00 h 0,0 UV-I 0 W/m 16,1 C 18,3 C 2,6 km/h (1 Bft)
01.07.2016 01:00 25,3 C 17,4 C 57 % 91 % 1015,7 hPa 0,0 l/m 0,1 km/h (0 Bft) SO 0,00 h 0,0 UV-I 0 W/m 15,8 C 17,4 C 1,0 km/h (0 Bft)
01.07.2016 02:00 25,3 C 16,7 C 57 % 91 % 1015,5 hPa 0,0 l/m 0,0 km/h (0 Bft) N 0,00 h 0,0 UV-I 0 W/m 15,3 C 16,7 C 0,0 km/h (0 Bft)
01.07.2016 03:00 25,3 C 16,2 C 57 % 93 % 1015,5 hPa 0,0 l/m 0,0 km/h (0 Bft) N 0,00 h 0,0 UV-I 0 W/m 15,0 C 16,2 C 0,0 km/h (0 Bft)
01.07.2016 04:00 25,2 C 15,4 C 57 % 95 % 1015,7 hPa 0,0 l/m 0,0 km/h (0 Bft) N 0,00 h 0,0 UV-I 0 W/m 14,5 C 15,4 C 0,0 km/h (0 Bft)
01.07.2016 05:00 25,3 C 15,1 C 58 % 96 % 1016,1 hPa 0,0 l/m 0,0 km/h (0 Bft) N 0,00 h 0,0 UV-I 13 W/m 14,5 C 15,1 C 0,0 km/h (0 Bft)
01.07.2016 06:00 25,1 C 15,1 C 58 % 96 % 1016,5 hPa 0,0 l/m 0,0 km/h (0 Bft) N 0,00 h 0,0 UV-I 39 W/m 14,4 C 15,1 C 0,0 km/h (0 Bft)
01.07.2016 07:00 25,1 C 16,8 C 58 % 92 % 1016,5 hPa 0,0 l/m 0,7 km/h (0 Bft) S 0,58 h 1,0 UV-I 190 W/m 15,5 C 16,8 C 1,8 km/h (1 Bft)
01.07.2016 08:00 25,1 C 18,9 C 58 % 84 % 1016,6 hPa 0,0 l/m 5,8 km/h (2 Bft) S 1,00 h 1,7 UV-I 414 W/m 16,2 C 18,6 C 9,1 km/h (2 Bft)
01.07.2016 09:00 25,2 C 20,1 C 58 % 78 % 1016,8 hPa 0,0 l/m 4,4 km/h (1 Bft) S 1,00 h 2,5 UV-I 425 W/m 16,1 C 19,9 C 9,1 km/h (2 Bft)
01.07.2016 10:00 25,1 C 20,8 C 58 % 72 % 1016,6 hPa 0,0 l/m 6,5 km/h (2 Bft) S 0,77 h 2,7 UV-I 358 W/m 15,6 C 20,4 C 11,5 km/h (2 Bft)
01.07.2016 11:00 25,2 C 22,2 C 57 % 66 % 1016,7 hPa 0,0 l/m 6,3 km/h (2 Bft) W-SW 1,00 h 5,7 UV-I 741 W/m 15,5 C 21,8 C 12,0 km/h (2 Bft)
01.07.2016 12:00 25,5 C 23,9 C 58 % 58 % 1016,3 hPa 0,0 l/m 8,0 km/h (2 Bft) S 1,00 h 7,0 UV-I 888 W/m 15,2 C 23,3 C 15,1 km/h (3 Bft)
01.07.2016 13:00 25,4 C 23,8 C 57 % 59 % 1015,9 hPa 0,0 l/m 6,0 km/h (2 Bft) S 1,00 h 5,8 UV-I 709 W/m 15,3 C 23,5 C 12,1 km/h (2 Bft)
01.07.2016 14:00 25,5 C 22,3 C 56 % 65 % 1015,7 hPa 0,0 l/m 2,7 km/h (1 Bft) W-SW 0,43 h 1,5 UV-I 122 W/m 15,3 C 22,3 C 7,0 km/h (2 Bft)
01.07.2016 15:00 25,5 C 22,5 C 57 % 70 % 1015,4 hPa 0,0 l/m 1,4 km/h (1 Bft) W-SW 0,83 h 3,7 UV-I 518 W/m 16,7 C 22,4 C 3,4 km/h (1 Bft)
01.07.2016 16:00 25,8 C 24,4 C 56 % 60 % 1015,0 hPa 0,0 l/m 4,9 km/h (1 Bft) S 1,00 h 3,7 UV-I 608 W/m 16,0 C 24,2 C 10,8 km/h (2 Bft)
01.07.2016 17:00 25,9 C 24,8 C 56 % 57 % 1014,4 hPa 0,0 l/m 5,9 km/h (2 Bft) S 0,80 h 2,3 UV-I 375 W/m 15,5 C 24,5 C 11,8 km/h (2 Bft)
01.07.2016 18:00 25,8 C 24,3 C 56 % 56 % 1014,2 hPa 0,0 l/m 4,3 km/h (1 Bft) W-SW 0,00 h 1,0 UV-I 82 W/m 15,0 C 24,1 C 8,7 km/h (2 Bft)
01.07.2016 19:00 25,7 C 24,0 C 55 % 55 % 1014,0 hPa 0,0 l/m 2,8 km/h (1 Bft) S 0,00 h 0,7 UV-I 50 W/m 14,4 C 24,0 C 6,4 km/h (2 Bft)
01.07.2016 20:00 25,7 C 23,0 C 55 % 61 % 1013,9 hPa 0,0 l/m 0,3 km/h (0 Bft) S 0,00 h 0,0 UV-I 20 W/m 15,2 C 23,0 C 0,9 km/h (0 Bft)
01.07.2016 21:00 25,9 C 21,1 C 55 % 70 % 1014,3 hPa 0,0 l/m 0,0 km/h (0 Bft) N 0,00 h 0,0 UV-I 7 W/m 15,4 C 21,1 C 0,0 km/h (0 Bft)
01.07.2016 22:00 26,1 C 19,0 C 56 % 80 % 1014,5 hPa 0,0 l/m 0,0 km/h (0 Bft) N 0,00 h 0,0 UV-I 0 W/m 15,4 C 19,0 C 0,0 km/h (0 Bft)
01.07.2016 23:00 25,8 C 17,5 C 56 % 85 % 1014,4 hPa 0,0 l/m 0,0 km/h (0 Bft) N 0,00 h 0,0 UV-I 0 W/m 15,0 C 17,5 C 0,0 km/h (0 Bft)
02.07.2016 00:00 25,6 C 16,3 C 57 % 89 % 1014,2 hPa 0,0 l/m 0,0 km/h (0 Bft) N 0,00 h 0,0 UV-I 0 W/m 14,4 C 16,3 C 0,0 km/h (0 Bft)
02.07.2016 01:00 25,5 C 15,6 C 57 % 91 % 1013,8 hPa 0,0 l/m 0,0 km/h (0 Bft) N 0,00 h 0,0 UV-I 0 W/m 14,1 C 15,6 C 0,0 km/h (0 Bft)
02.07.2016 02:00 25,5 C 15,2 C 57 % 92 % 1013,3 hPa 0,0 l/m 0,0 km/h (0 Bft) N 0,00 h 0,0 UV-I 0 W/m 13,8 C 15,2 C 0,0 km/h (0 Bft)
02.07.2016 03:00 25,4 C 15,3 C 57 % 92 % 1012,8 hPa 0,0 l/m 0,4 km/h (0 Bft) W-NW 0,00 h 0,0 UV-I 0 W/m 14,0 C 15,2 C 1,0 km/h (0 Bft)
02.07.2016 04:00 25,4 C 15,1 C 57 % 93 % 1012,8 hPa 0,0 l/m 0,0 km/h (0 Bft) S 0,00 h 0,0 UV-I 0 W/m 14,0 C 15,1 C 0,1 km/h (0 Bft)
02.07.2016 05:00 25,4 C 14,6 C 57 % 94 % 1012,6 hPa 0,0 l/m 0,0 km/h (0 Bft) N 0,00 h 0,0 UV-I 11 W/m 13,7 C 14,6 C 0,0 km/h (0 Bft)
02.07.2016 06:00 25,3 C 14,8 C 57 % 94 % 1012,5 hPa 0,0 l/m 0,0 km/h (0 Bft) N 0,00 h 0,0 UV-I 24 W/m 13,9 C 14,8 C 0,0 km/h (0 Bft)
02.07.2016 07:00 25,3 C 18,0 C 57 % 87 % 1012,4 hPa 0,0 l/m 0,6 km/h (0 Bft) S 0,55 h 0,9 UV-I 189 W/m 15,8 C 18,0 C 1,4 km/h (1 Bft)
02.07.2016 08:00 25,2 C 21,6 C 57 % 73 % 1012,2 hPa 0,0 l/m 4,0 km/h (1 Bft) S 1,00 h 1,6 UV-I 368 W/m 16,5 C 21,5 C 9,0 km/h (2 Bft)
02.07.2016 09:00 25,3 C 20,1 C 57 % 78 % 1013,0 hPa 1,4 l/m 6,5 km/h (2 Bft) S 0,17 h 0,8 UV-I 94 W/m 16,1 C 19,7 C 10,7 km/h (2 Bft)
02.07.2016 10:00 25,4 C 18,4 C 58 % 92 % 1012,9 hPa 0,2 l/m 2,4 km/h (1 Bft) S 0,70 h 2,4 UV-I 294 W/m 17,1 C 18,3 C 6,2 km/h (2 Bft)
02.07.2016 11:00 25,4 C 19,7 C 59 % 86 % 1013,1 hPa 0,0 l/m 4,4 km/h (1 Bft) W-SW 0,78 h 2,8 UV-I 279 W/m 17,2 C 19,4 C 10,1 km/h (2 Bft)
02.07.2016 12:00 25,3 C 18,3 C 59 % 88 % 1013,6 hPa 0,0 l/m 2,4 km/h (1 Bft) W-SW 0,28 h 1,7 UV-I 158 W/m 16,2 C 18,1 C 6,2 km/h (2 Bft)
02.07.2016 13:00 25,7 C 18,6 C 59 % 86 % 1013,5 hPa 0,0 l/m 1,1 km/h (1 Bft) SW 0,22 h 1,5 UV-I 119 W/m 16,2 C 18,6 C 3,9 km/h (1 Bft)
02.07.2016 14:00 25,8 C 17,5 C 59 % 91 % 1013,5 hPa 0,8 l/m 0,3 km/h (0 Bft) S 0,20 h 1,2 UV-I 121 W/m 16,0 C 17,5 C 2,2 km/h (1 Bft)
02.07.2016 15:00 25,7 C 17,5 C 58 % 93 % 1013,5 hPa 0,4 l/m 1,1 km/h (1 Bft) S 0,57 h 1,4 UV-I 163 W/m 16,3 C 17,5 C 3,7 km/h (1 Bft)
02.07.2016 16:00 25,6 C 17,6 C 59 % 91 % 1013,4 hPa 0,0 l/m 2,2 km/h (1 Bft) S 0,38 h 1,2 UV-I 143 W/m 16,1 C 17,5 C 6,4 km/h (2 Bft)
02.07.2016 17:00 25,7 C 15,8 C 59 % 92 % 1014,5 hPa 1,2 l/m 7,2 km/h (2 Bft) W-NW 0,00 h 0,6 UV-I 77 W/m 14,4 C 14,8 C 14,7 km/h (3 Bft)
02.07.2016 18:00 25,8 C 15,0 C 59 % 92 % 1014,7 hPa 0,0 l/m 0,1 km/h (0 Bft) W-NW 0,00 h 0,6 UV-I 69 W/m 13,7 C 15,0 C 0,3 km/h (0 Bft)
02.07.2016 19:00 25,8 C 14,8 C 58 % 90 % 1015,6 hPa 0,0 l/m 2,0 km/h (1 Bft) W-SW 0,00 h 0,0 UV-I 64 W/m 13,2 C 14,8 C 5,9 km/h (2 Bft)
02.07.2016 20:00 25,8 C 14,2 C 58 % 90 % 1016,3 hPa 0,0 l/m 1,9 km/h (1 Bft) W-SW 0,00 h 0,0 UV-I 24 W/m 12,5 C 14,2 C 5,3 km/h (1 Bft)
02.07.2016 21:00 25,8 C 13,2 C 58 % 90 % 1017,3 hPa 0,0 l/m 1,3 km/h (1 Bft) W-SW 0,00 h 0,0 UV-I 6 W/m 11,6 C 13,2 C 4,5 km/h (1 Bft)
02.07.2016 22:00 25,9 C 12,9 C 57 % 91 % 1018,0 hPa 0,0 l/m 0,0 km/h (0 Bft) N 0,00 h 0,0 UV-I 0 W/m 11,5 C 12,9 C 0,1 km/h (0 Bft)
02.07.2016 23:00 25,8 C 12,5 C 57 % 93 % 1018,5 hPa 0,0 l/m 0,0 km/h (0 Bft) N 0,00 h 0,0 UV-I 0 W/m 11,3 C 12,5 C 0,0 km/h (0 Bft)
03.07.2016 00:00 25,5 C 12,0 C 57 % 94 % 1018,9 hPa 0,0 l/m 0,5 km/h (0 Bft) W-SW 0,00 h 0,0 UV-I 0 W/m 11,1 C 12,0 C 1,3 km/h (1 Bft)
03.07.2016 01:00 25,4 C 12,2 C 58 % 92 % 1019,2 hPa 0,0 l/m 0,3 km/h (0 Bft) W 0,00 h 0,0 UV-I 0 W/m 11,0 C 12,2 C 1,1 km/h (1 Bft)
03.07.2016 02:00 25,3 C 11,5 C 58 % 93 % 1019,3 hPa 0,0 l/m 0,0 km/h (0 Bft) S-SW 0,00 h 0,0 UV-I 0 W/m 10,4 C 11,5 C 0,3 km/h (0 Bft)
03.07.2016 03:00 25,3 C 10,6 C 58 % 92 % 1019,6 hPa 0,0 l/m 0,0 km/h (0 Bft) W-SW 0,00 h 0,0 UV-I 0 W/m 9,5 C 10,6 C 0,3 km/h (0 Bft)
03.07.2016 04:00 25,3 C 9,8 C 59 % 95 % 1019,8 hPa 0,0 l/m 0,0 km/h (0 Bft) N 0,00 h 0,0 UV-I 0 W/m 9,0 C 9,8 C 0,0 km/h (0 Bft)
03.07.2016 05:00 25,2 C 9,0 C 59 % 96 % 1019,9 hPa 0,0 l/m 0,0 km/h (0 Bft) N 0,00 h 0,0 UV-I 11 W/m 8,3 C 9,0 C 0,0 km/h (0 Bft)
03.07.2016 06:00 25,2 C 9,2 C 59 % 97 % 1020,1 hPa 0,0 l/m 0,0 km/h (0 Bft) N 0,00 h 0,0 UV-I 45 W/m 8,7 C 9,2 C 0,0 km/h (0 Bft)
03.07.2016 07:00 25,2 C 11,0 C 59 % 96 % 1020,4 hPa 0,0 l/m 0,0 km/h (0 Bft) N 0,27 h 0,7 UV-I 165 W/m 10,5 C 11,0 C 0,1 km/h (0 Bft)
03.07.2016 08:00 25,4 C 13,2 C 59 % 88 % 1020,5 hPa 0,0 l/m 1,0 km/h (0 Bft) S 1,00 h 1,6 UV-I 377 W/m 11,3 C 13,2 C 2,9 km/h (1 Bft)
03.07.2016 09:00 25,4 C 15,1 C 58 % 78 % 1020,7 hPa 0,0 l/m 4,5 km/h (1 Bft) S 0,95 h 3,0 UV-I 603 W/m 11,2 C 14,8 C 8,4 km/h (2 Bft)
03.07.2016 10:00 25,3 C 16,1 C 56 % 71 % 1020,8 hPa 0,0 l/m 3,4 km/h (1 Bft) W-SW 1,00 h 3,9 UV-I 688 W/m 10,7 C 15,9 C 8,1 km/h (2 Bft)
03.07.2016 11:00 25,4 C 16,7 C 56 % 67 % 1020,6 hPa 0,0 l/m 5,5 km/h (1 Bft) W 1,00 h 4,1 UV-I 499 W/m 10,5 C 16,3 C 11,6 km/h (2 Bft)
03.07.2016 12:00 25,3 C 18,0 C 55 % 61 % 1020,4 hPa 0,0 l/m 7,3 km/h (2 Bft) W-SW 1,00 h 6,1 UV-I 801 W/m 10,4 C 17,2 C 14,8 km/h (3 Bft)
03.07.2016 13:00 25,3 C 16,7 C 54 % 64 % 1020,1 hPa 0,0 l/m 5,0 km/h (1 Bft) W 0,82 h 2,1 UV-I 230 W/m 9,9 C 16,4 C 11,0 km/h (2 Bft)
03.07.2016 14:00 25,3 C 16,6 C 52 % 65 % 1019,9 hPa 0,0 l/m 3,7 km/h (1 Bft) W-SW 1,00 h 3,0 UV-I 317 W/m 9,9 C 16,5 C 8,7 km/h (2 Bft)
03.07.2016 15:00 24,8 C 17,9 C 48 % 60 % 1019,9 hPa 0,0 l/m 5,3 km/h (1 Bft) W-SW 1,00 h 3,8 UV-I 474 W/m 10,0 C 17,5 C 11,1 km/h (2 Bft)
03.07.2016 16:00 24,4 C 17,8 C 47 % 59 % 1019,7 hPa 0,0 l/m 4,8 km/h (1 Bft) W 1,00 h 2,6 UV-I 367 W/m 9,6 C 17,5 C 10,9 km/h (2 Bft)
03.07.2016 17:00 24,6 C 17,3 C 48 % 60 % 1019,6 hPa 0,0 l/m 4,8 km/h (1 Bft) W-SW 0,52 h 1,0 UV-I 145 W/m 9,4 C 17,0 C 10,7 km/h (2 Bft)
03.07.2016 18:00 25,1 C 17,4 C 49 % 55 % 1019,7 hPa 0,0 l/m 6,4 km/h (2 Bft) W-SW 0,50 h 1,0 UV-I 151 W/m 8,2 C 16,7 C 14,9 km/h (3 Bft)
03.07.2016 19:00 25,1 C 16,5 C 49 % 62 % 1020,3 hPa 0,0 l/m 4,8 km/h (1 Bft) W 0,00 h 0,6 UV-I 60 W/m 9,2 C 16,2 C 10,8 km/h (2 Bft)
03.07.2016 20:00 25,2 C 13,8 C 50 % 86 % 1021,1 hPa 2,8 l/m 1,3 km/h (1 Bft) W-NW 0,00 h 0,0 UV-I 8 W/m 11,4 C 13,8 C 3,4 km/h (1 Bft)
03.07.2016 21:00 25,3 C 12,9 C 51 % 93 % 1021,4 hPa 0,0 l/m 0,0 km/h (0 Bft) N 0,00 h 0,0 UV-I 5 W/m 11,7 C 12,9 C 0,0 km/h (0 Bft)
03.07.2016 22:00 25,2 C 12,1 C 51 % 95 % 1021,7 hPa 0,0 l/m 0,0 km/h (0 Bft) N 0,00 h 0,0 UV-I 0 W/m 11,2 C 12,1 C 0,0 km/h (0 Bft)
03.07.2016 23:00 25,0 C 11,1 C 52 % 95 % 1022,1 hPa 0,0 l/m 0,0 km/h (0 Bft) N 0,00 h 0,0 UV-I 0 W/m 10,4 C 11,1 C 0,2 km/h (0 Bft)
Min-Datum _ 03.07.16 03.07.16 27.06.16 27.06.16 29.06.16 - 27.06.16 - - - - 27.06.16 03.07.16 27.06.16
_ Min-Zeit 16:24 06:05 18:07 14:56 04:09 - 00:00 - - - - 14:57 06:05 00:00
Minimum _ 24,3 C 8,4 C 43 % 38 % 1011,9 hPa - 0,0 km/h (0 Bft) - - - - 6,2 C 8,4 C 0,0 km/h (0 Bft)
Max-Datum _ 01.07.16 01.07.16 03.07.16 03.07.16 03.07.16 03.07.16 29.06.16 - 27.06.16 28.06.16 03.07.16 01.07.16 01.07.16 29.06.16
_ Max-Zeit 22:19 17:18 08:32 06:13 23:33 20:12 11:21 - 12:41 12:58 13:00 15:29 17:21 13:50
Maximum _ 26,2 C 25,2 C 60 % 97 % 1022,2 hPa 2,8 l/m 22,5 km/h
W-SW (4 Bft)
- 0,03 h 8,3 UV-I 1176 W/m 18,5 C 25,2 C 35,4 km/h
W-SW (5 Bft)
Durchschnitt _ 25,3 C 17,7 C 54 % 76 % 1015,9 hPa #6,8 l/m 2,5 km/h (1 Bft) W-SW #61:01 h 2,7 UV-I 284 W/m 13,1 C 17,5 C 5,3 km/h (1 Bft)